Time;durP1;ratioP1;P1;durP2;ratioP2;P2;SDS_P1;SDS_P2;PMS_P1;PMS_P2;Temp;Humidity;BMP_temperature;BMP_pressure;BME280_temperature;BME280_humidity;BME280_pressure;Samples;Min_cycle;Max_cycle;Signal;HPM_P1;HPM_P2
2022/10/24 00:00:43;;;;;;;5.15;1.63;;;16.30;99.90;;;16.43;100.00;100217.94;5266657;28;20093;-71
2022/10/24 00:03:15;;;;;;;4.10;1.85;;;16.20;99.90;;;16.40;100.00;100216.19;5267007;28;20043;-71
2022/10/24 00:05:48;;;;;;;7.60;1.90;;;16.20;99.90;;;16.39;100.00;100219.72;5265751;28;20044;-71
2022/10/24 00:08:21;;;;;;;4.85;1.77;;;16.20;99.90;;;16.37;100.00;100216.22;5265723;28;20520;-71
2022/10/24 00:10:54;;;;;;;5.75;2.22;;;16.20;99.90;;;16.34;100.00;100207.41;5266112;28;20136;-70
2022/10/24 00:13:26;;;;;;;6.97;1.92;;;16.20;99.90;;;16.28;100.00;100210.91;5266871;28;20043;-70
2022/10/24 00:15:59;;;;;;;5.03;1.90;;;16.10;99.90;;;16.27;100.00;100203.91;5266675;28;20048;-71
2022/10/24 00:18:31;;;;;;;6.35;1.52;;;16.10;99.90;;;16.23;100.00;100204.75;5266827;28;20523;-70
2022/10/24 00:21:05;;;;;;;4.93;1.67;;;16.10;99.90;;;16.21;100.00;100201.25;5266276;28;20049;-70
2022/10/24 00:23:38;;;;;;;3.92;1.73;;;16.10;99.90;;;16.19;100.00;100192.50;5265453;28;20056;-71
2022/10/24 00:26:13;;;;;;;4.43;1.70;;;16.00;99.90;;;16.18;100.00;100201.25;5266467;28;20105;-71
2022/10/24 00:28:45;;;;;;;3.67;1.58;;;16.00;99.90;;;16.17;100.00;100207.38;5267229;28;20048;-70
2022/10/24 00:31:19;;;;;;;3.53;1.60;;;15.90;99.90;;;16.16;100.00;100203.00;5265810;28;20048;-71
2022/10/24 00:33:51;;;;;;;4.40;1.58;;;16.00;99.90;;;16.15;100.00;100198.59;5267043;28;20048;-71
2022/10/24 00:36:25;;;;;;;4.63;1.52;;;16.00;99.90;;;16.14;100.00;100191.59;5266251;28;20043;-71
2022/10/24 00:38:58;;;;;;;3.22;1.50;;;16.00;99.90;;;16.13;100.00;100192.47;5266696;28;20089;-72
2022/10/24 00:41:35;;;;;;;4.10;1.63;;;16.00;99.90;;;16.11;100.00;100199.50;5266101;28;20188;-71
2022/10/24 00:44:19;;;;;;;3.88;1.58;;;15.90;99.90;;;16.10;100.00;100190.69;5266293;28;20040;-71
2022/10/24 00:46:55;;;;;;;4.63;1.83;;;15.90;99.90;;;16.10;100.00;100201.22;5266071;28;20404;-71
2022/10/24 00:49:43;;;;;;;3.83;1.70;;;15.90;99.90;;;16.10;100.00;100190.69;5266412;28;20047;-71
2022/10/24 00:52:21;;;;;;;4.90;2.00;;;15.90;99.90;;;16.09;100.00;100193.31;5265789;28;20497;-71
2022/10/24 00:54:55;;;;;;;4.97;1.98;;;15.90;99.90;;;16.09;100.00;100186.31;5264989;28;20051;-71
2022/10/24 00:57:34;;;;;;;4.88;1.92;;;15.90;99.90;;;16.11;100.00;100186.34;5266293;28;20405;-71
2022/10/24 01:00:11;;;;;;;6.75;1.73;;;15.90;99.90;;;16.11;100.00;100186.34;5264106;28;20044;-70
2022/10/24 01:02:43;;;;;;;4.15;1.70;;;15.90;99.90;;;16.14;100.00;100196.84;5265810;28;20055;-71
2022/10/24 01:05:17;;;;;;;5.80;1.70;;;16.00;99.90;;;16.16;100.00;100195.97;5266742;28;20051;-70
2022/10/24 01:07:58;;;;;;;5.47;1.75;;;16.00;99.90;;;16.19;100.00;100205.63;5266502;28;20052;-70
2022/10/24 01:10:41;;;;;;;4.32;1.70;;;16.00;99.90;;;16.19;100.00;100200.38;5265577;28;20040;-70
2022/10/24 01:13:28;;;;;;;4.85;1.92;;;16.00;99.90;;;16.19;100.00;100197.75;5265735;28;20495;-73
2022/10/24 01:16:11;;;;;;;4.55;1.58;;;16.00;99.90;;;16.18;100.00;100193.38;5266294;28;20044;-70
2022/10/24 01:18:50;;;;;;;5.38;1.85;;;16.00;99.90;;;16.18;100.00;100193.38;5266134;28;20048;-70
2022/10/24 01:21:30;;;;;;;8.88;1.92;;;16.00;99.90;;;16.14;100.00;100195.09;5265416;28;20071;-72
2022/10/24 01:25:00;;;;;;;6.90;2.17;;;16.00;99.90;;;16.16;100.00;100192.47;5265536;28;20044;-71
2022/10/24 01:27:57;;;;;;;8.50;1.98;;;16.00;99.90;;;16.16;100.00;100179.31;5223746;28;20153;-72
2022/10/24 01:30:39;;;;;;;3.03;1.90;;;16.00;99.90;;;16.14;100.00;100170.56;5264984;28;20058;-70
2022/10/24 01:33:20;;;;;;;8.48;2.17;;;16.00;99.90;;;16.14;100.00;100166.19;5265739;28;20048;-71
2022/10/24 01:35:56;;;;;;;6.13;1.83;;;16.00;99.90;;;16.16;100.00;100164.44;5265580;28;20044;-72
2022/10/24 01:38:35;;;;;;;8.38;1.80;;;16.00;99.90;;;16.17;100.00;100149.53;5265801;28;20525;-70
2022/10/24 01:41:11;;;;;;;6.63;2.13;;;16.00;99.90;;;16.17;100.00;100147.81;5265141;28;20048;-71
2022/10/24 01:43:48;;;;;;;7.25;1.85;;;16.00;99.90;;;16.20;100.00;100150.41;5265650;28;20051;-70
2022/10/24 01:46:27;;;;;;;4.13;1.90;;;16.10;99.90;;;16.22;100.00;100140.78;5264192;28;20142;-72
2022/10/24 01:49:05;;;;;;;4.88;2.10;;;16.10;99.90;;;16.27;100.00;100136.41;5265750;28;20090;-71
2022/10/24 01:51:40;;;;;;;7.95;2.33;;;16.10;99.90;;;16.27;100.00;100125.00;5264989;28;20048;-70
2022/10/24 01:54:13;;;;;;;5.53;1.92;;;16.10;99.90;;;16.28;100.00;100129.38;5265496;28;20520;-70
2022/10/24 01:56:46;;;;;;;3.30;1.60;;;16.10;99.90;;;16.30;100.00;100130.28;5265292;28;20048;-71
2022/10/24 01:59:45;;;;;;;5.85;2.60;;;16.10;99.90;;;16.31;100.00;100132.03;5265584;28;20416;-70
2022/10/24 02:02:27;;;;;;;8.30;2.20;;;16.20;99.90;;;16.31;100.00;100128.53;5265249;28;20028;-71
2022/10/24 02:05:04;;;;;;;8.07;2.00;;;16.10;99.90;;;16.32;100.00;100136.41;5265481;28;20044;-71
2022/10/24 02:07:39;;;;;;;4.15;1.88;;;16.20;99.90;;;16.34;100.00;100142.53;5265594;28;20048;-71
2022/10/24 02:10:18;;;;;;;4.53;1.83;;;16.20;99.90;;;16.36;100.00;100137.28;5265514;28;20062;-71
2022/10/24 02:12:56;;;;;;;5.70;1.70;;;16.20;99.90;;;16.37;100.00;100139.06;5265359;28;20048;-71
2022/10/24 02:15:34;;;;;;;8.32;1.80;;;16.20;99.90;;;16.35;100.00;100141.66;5263918;28;20055;-71
2022/10/24 02:18:08;;;;;;;6.93;2.03;;;16.20;99.90;;;16.39;100.00;100130.28;5265285;28;20237;-71
2022/10/24 02:20:48;;;;;;;4.93;1.80;;;16.20;99.90;;;16.40;100.00;100131.16;5264851;28;20040;-71
2022/10/24 02:23:27;;;;;;;4.50;1.70;;;16.20;99.90;;;16.40;100.00;100125.91;5266935;28;20047;-71
2022/10/24 02:26:03;;;;;;;5.88;1.98;;;16.20;99.90;;;16.39;100.00;100130.28;5268815;28;20149;-71
2022/10/24 02:28:42;;;;;;;4.15;1.80;;;16.20;99.90;;;16.36;100.00;100125.00;5269097;28;20044;-71
2022/10/24 02:31:20;;;;;;;6.57;2.47;;;16.20;99.90;;;16.37;100.00;100121.53;5268285;28;20051;-71
2022/10/24 02:33:56;;;;;;;7.82;1.92;;;16.20;99.90;;;16.36;100.00;100134.66;5268806;28;20122;-71
2022/10/24 02:36:32;;;;;;;5.18;1.92;;;16.20;99.90;;;16.35;100.00;100133.78;5268625;28;20070;-71
2022/10/24 02:39:07;;;;;;;3.65;1.60;;;16.20;99.90;;;16.36;100.00;100135.53;5268883;28;20127;-71
2022/10/24 02:41:42;;;;;;;8.88;2.30;;;16.20;99.90;;;16.38;100.00;100135.56;5268681;28;20040;-71
2022/10/24 02:44:18;;;;;;;7.75;2.30;;;16.20;99.90;;;16.40;100.00;100142.56;5268836;28;20040;-71
2022/10/24 02:46:54;;;;;;;3.17;1.48;;;16.20;99.90;;;16.39;100.00;100146.06;5267079;28;20048;-71
2022/10/24 02:49:28;;;;;;;9.02;2.63;;;16.20;99.90;;;16.45;100.00;100140.81;5268550;28;20048;-71
2022/10/24 02:52:02;;;;;;;5.43;2.00;;;16.30;99.90;;;16.48;100.00;100138.16;5267772;28;20048;-71
2022/10/24 02:54:35;;;;;;;5.32;2.30;;;16.30;99.90;;;16.46;100.00;100137.31;5268712;28;20048;-72
2022/10/24 02:57:09;;;;;;;7.18;2.17;;;16.30;99.90;;;16.46;100.00;100126.78;5268094;28;20044;-71
2022/10/24 02:59:41;;;;;;;6.90;2.08;;;16.30;99.90;;;16.46;100.00;100134.66;5268175;28;20044;-72
2022/10/24 03:02:14;;;;;;;6.28;2.42;;;16.30;99.90;;;16.45;100.00;100130.28;5267842;28;20110;-71
2022/10/24 03:04:48;;;;;;;3.80;1.80;;;16.30;99.90;;;16.44;100.00;100125.91;5268451;28;20058;-71
2022/10/24 03:07:20;;;;;;;4.75;1.70;;;16.30;99.90;;;16.44;100.00;100131.16;5268435;28;20066;-71
2022/10/24 03:09:52;;;;;;;3.90;1.92;;;16.30;99.90;;;16.43;100.00;100123.25;5267655;28;20048;-71
2022/10/24 03:12:25;;;;;;;4.95;1.75;;;16.30;99.90;;;16.40;100.00;100113.63;5267884;28;20084;-71
2022/10/24 03:14:57;;;;;;;6.32;2.47;;;16.30;99.90;;;16.38;100.00;100118.00;5268137;28;20126;-71
2022/10/24 03:17:30;;;;;;;8.18;3.50;;;16.20;99.90;;;16.37;100.00;100118.91;5268232;28;20050;-71
2022/10/24 03:20:05;;;;;;;5.05;2.47;;;16.20;99.90;;;16.37;100.00;100125.91;5267823;28;20055;-71
2022/10/24 03:22:37;;;;;;;;;;;16.20;99.90;;;16.35;100.00;100123.25;5268298;28;20504;-71
2022/10/24 03:25:10;;;;;;;6.43;2.35;;;16.20;99.90;;;16.35;100.00;100122.38;5267989;28;19928;-71
2022/10/24 03:27:43;;;;;;;3.90;2.53;;;16.20;99.90;;;16.32;100.00;100123.25;5267568;28;20052;-71
2022/10/24 03:30:16;;;;;;;7.07;2.70;;;16.20;99.90;;;16.33;100.00;100118.88;5281831;22;20042;-72
2022/10/24 03:32:48;;;;;;;9.35;3.60;;;16.20;99.90;;;16.32;100.00;100118.00;5267142;28;20036;-72
2022/10/24 03:35:22;;;;;;;10.63;5.00;;;16.20;99.90;;;16.32;100.00;100118.00;5266732;28;20404;-72
2022/10/24 03:37:56;;;;;;;9.32;2.85;;;16.20;99.90;;;16.36;100.00;100113.59;5268034;28;20050;-71
2022/10/24 03:40:28;;;;;;;9.25;2.80;;;16.20;99.90;;;16.36;100.00;100114.47;5268140;28;20126;-71
2022/10/24 03:43:01;;;;;;;3.83;2.33;;;16.20;99.90;;;16.37;100.00;100121.53;5283544;28;20033;-72
2022/10/24 03:45:33;;;;;;;5.60;1.98;;;16.20;99.90;;;16.37;100.00;100120.66;5267971;28;20047;-72
2022/10/24 03:48:06;;;;;;;7.03;2.58;;;16.20;99.90;;;16.33;100.00;100111.88;5267848;28;20047;-72
2022/10/24 03:50:40;;;;;;;6.38;2.50;;;16.20;99.90;;;16.34;100.00;100126.75;5267851;28;20040;-69
2022/10/24 03:53:12;;;;;;;5.50;2.28;;;16.20;99.90;;;16.35;100.00;100132.91;5268021;28;20071;-72
2022/10/24 03:55:44;;;;;;;6.75;2.88;;;16.20;99.90;;;16.36;100.00;100132.03;5267800;28;20522;-72
2022/10/24 03:58:16;;;;;;;8.13;2.10;;;16.20;99.90;;;16.40;100.00;100131.16;5268097;28;20048;-72
2022/10/24 04:00:49;;;;;;;8.80;2.50;;;16.20;99.90;;;16.41;100.00;100131.16;5268261;28;20040;-72
2022/10/24 04:03:21;;;;;;;5.45;2.42;;;16.20;99.90;;;16.39;100.00;100134.66;5267491;28;20190;-72
2022/10/24 04:05:54;;;;;;;6.30;2.20;;;16.20;99.90;;;16.44;100.00;100138.19;5268112;28;20066;-72
2022/10/24 04:08:26;;;;;;;5.80;2.22;;;16.20;99.90;;;16.42;100.00;100135.53;5267518;28;20512;-72
2022/10/24 04:10:59;;;;;;;6.47;2.67;;;16.30;99.90;;;16.42;100.00;100139.91;5266145;28;20408;-72
2022/10/24 04:13:31;;;;;;;8.60;2.60;;;16.20;99.90;;;16.41;100.00;100130.28;5267427;28;20040;-72
2022/10/24 04:16:03;;;;;;;4.95;1.70;;;16.20;99.90;;;16.42;100.00;100137.28;5267387;28;20543;-72
2022/10/24 04:18:35;;;;;;;5.25;2.08;;;16.20;99.90;;;16.41;100.00;100132.91;5267427;28;20044;-72
2022/10/24 04:21:09;;;;;;;5.78;2.10;;;16.20;99.90;;;16.40;100.00;100134.66;5267483;28;20117;-72
2022/10/24 04:23:43;;;;;;;5.28;1.92;;;16.20;99.90;;;16.41;100.00;100140.78;5267138;28;20492;-72
2022/10/24 04:26:17;;;;;;;5.63;3.05;;;16.20;99.90;;;16.41;100.00;100138.16;5265987;28;20405;-72
2022/10/24 04:28:49;;;;;;;7.15;2.80;;;16.20;99.90;;;16.43;100.00;100129.41;5265956;28;20499;-72
2022/10/24 04:31:23;;;;;;;7.07;3.40;;;16.20;99.90;;;16.43;100.00;100131.16;5266935;28;20467;-73
2022/10/24 04:33:55;;;;;;;5.22;2.40;;;16.20;99.90;;;16.42;100.00;100132.91;5267026;28;20480;-72
2022/10/24 04:36:28;;;;;;;4.70;2.38;;;16.20;99.90;;;16.43;100.00;100139.03;5265683;28;20043;-72
2022/10/24 04:39:00;;;;;;;4.80;1.92;;;16.20;99.90;;;16.43;100.00;100129.41;5267022;28;20036;-70
2022/10/24 04:41:33;;;;;;;5.78;1.85;;;16.30;99.90;;;16.46;100.00;100136.44;5266911;28;20054;-71
2022/10/24 04:44:05;;;;;;;5.35;2.00;;;16.30;99.90;;;16.45;100.00;100135.56;5266590;28;20085;-72
2022/10/24 04:46:37;;;;;;;5.72;1.77;;;16.30;99.90;;;16.43;100.00;100132.06;5266406;28;20044;-72
2022/10/24 04:49:10;;;;;;;6.25;2.63;;;16.30;99.90;;;16.47;100.00;100128.53;5266821;28;20058;-72
2022/10/24 04:51:44;;;;;;;7.72;2.88;;;16.30;99.90;;;16.46;100.00;100125.91;5266754;28;20042;-72
2022/10/24 04:54:16;;;;;;;4.00;2.00;;;16.30;99.90;;;16.47;100.00;100128.53;5265358;28;20037;-72
2022/10/24 04:56:48;;;;;;;7.93;2.30;;;16.30;99.90;;;16.46;100.00;100134.66;5266764;28;20405;-72
2022/10/24 04:59:21;;;;;;;4.05;1.95;;;16.30;99.90;;;16.45;100.00;100126.78;5282238;28;20036;-72
2022/10/24 05:01:53;;;;;;;4.65;2.42;;;16.30;99.90;;;16.43;100.00;100121.53;5266580;28;20441;-72
2022/10/24 05:04:26;;;;;;;3.80;1.80;;;16.30;99.90;;;16.43;100.00;100132.06;5266546;28;20044;-72
2022/10/24 05:06:59;;;;;;;7.95;3.30;;;16.30;99.90;;;16.43;100.00;100126.78;5266815;28;20043;-72
2022/10/24 05:09:31;;;;;;;7.22;2.45;;;16.30;99.90;;;16.44;100.00;100130.28;5267632;28;20040;-72
2022/10/24 05:12:05;;;;;;;6.05;2.40;;;16.30;99.90;;;16.42;100.00;100132.91;5266119;28;20056;-72
2022/10/24 05:14:37;;;;;;;4.70;2.00;;;16.20;99.90;;;16.41;100.00;100133.78;5267357;28;20036;-72
2022/10/24 05:17:09;;;;;;;4.68;2.17;;;16.20;99.90;;;16.38;100.00;100122.41;5265925;28;20055;-72
2022/10/24 05:19:41;;;;;;;3.80;1.67;;;16.20;99.90;;;16.37;100.00;100139.06;5266491;28;20044;-72
2022/10/24 05:22:15;;;;;;;3.72;1.70;;;16.20;99.90;;;16.36;100.00;100140.78;5266509;28;20048;-72
2022/10/24 05:24:47;;;;;;;3.78;1.70;;;16.20;99.90;;;16.35;100.00;100154.81;5265131;28;20048;-71
2022/10/24 05:27:23;;;;;;;2.65;1.70;;;16.20;99.90;;;16.36;100.00;100153.06;5266316;28;20063;-72
2022/10/24 05:29:55;;;;;;;2.70;1.15;;;16.20;99.90;;;16.35;100.00;100154.81;5266305;28;20047;-71
2022/10/24 05:32:27;;;;;;;2.47;1.20;;;16.20;99.90;;;16.34;100.00;100147.81;5266337;28;20040;-69
2022/10/24 05:34:59;;;;;;;2.55;1.10;;;16.10;99.90;;;16.33;100.00;100156.56;5264989;28;20044;-70
2022/10/24 05:37:33;;;;;;;2.80;1.15;;;16.10;99.90;;;16.33;100.00;100153.94;5266488;28;20054;-69
2022/10/24 05:40:07;;;;;;;3.17;1.45;;;16.10;99.90;;;16.31;100.00;100147.81;5266317;28;20054;-71
2022/10/24 05:42:39;;;;;;;2.65;1.40;;;16.10;99.90;;;16.32;100.00;100146.94;5265058;28;20496;-71
2022/10/24 05:45:11;;;;;;;2.75;1.30;;;16.10;99.90;;;16.30;100.00;100146.06;5265008;28;20048;-71
2022/10/24 05:47:43;;;;;;;5.28;1.20;;;16.10;99.90;;;16.32;100.00;100148.69;5266701;28;20036;-71
2022/10/24 05:50:16;;;;;;;4.47;1.30;;;16.10;99.90;;;16.31;100.00;100147.81;5266194;28;20047;-71
2022/10/24 05:52:49;;;;;;;1.73;0.90;;;16.10;99.90;;;16.31;100.00;100150.44;5266031;28;20063;-70
2022/10/24 05:55:21;;;;;;;3.65;1.02;;;16.10;99.90;;;16.31;100.00;100142.56;5266270;28;20058;-71
2022/10/24 05:57:54;;;;;;;4.85;1.13;;;16.10;99.90;;;16.30;100.00;100156.59;5270143;28;20076;-71
2022/10/24 06:00:26;;;;;;;2.72;1.27;;;16.10;99.90;;;16.30;100.00;100156.59;5270167;28;20041;-71
2022/10/24 06:02:58;;;;;;;3.03;1.60;;;16.10;99.90;;;16.32;100.00;100159.22;5269000;28;20056;-71
2022/10/24 06:05:30;;;;;;;2.20;1.30;;;16.10;99.90;;;16.29;100.00;100160.94;5269177;28;20052;-56
2022/10/24 06:08:03;;;;;;;1.60;1.05;;;16.10;99.90;;;16.28;100.00;100158.31;5269083;28;20067;-56
2022/10/24 06:10:36;;;;;;;2.83;1.20;;;16.10;99.90;;;16.27;100.00;100159.19;5268805;28;20111;-57
2022/10/24 06:13:08;;;;;;;3.50;1.33;;;16.10;99.90;;;16.28;100.00;100150.44;5268983;28;20055;-56
2022/10/24 06:15:41;;;;;;;4.03;1.40;;;16.10;99.90;;;16.27;100.00;100146.06;5269136;28;20074;-56
2022/10/24 06:18:13;;;;;;;4.13;1.23;;;16.10;99.90;;;16.25;100.00;100150.44;5268504;28;20050;-58
2022/10/24 06:20:45;;;;;;;2.50;1.30;;;16.10;99.90;;;16.26;100.00;100157.44;5268699;28;20102;-58
2022/10/24 06:23:19;;;;;;;2.65;1.42;;;16.10;99.90;;;16.27;100.00;100151.31;5269227;28;20115;-58
2022/10/24 06:25:51;;;;;;;4.72;1.50;;;16.10;99.90;;;16.30;100.00;100153.97;5268888;28;20523;-56
2022/10/24 06:28:23;;;;;;;4.38;1.35;;;16.10;99.90;;;16.29;100.00;100155.69;5268814;28;20044;-56
2022/10/24 06:30:55;;;;;;;3.30;1.20;;;16.10;99.90;;;16.31;100.00;100157.47;5268476;28;20051;-56
2022/10/24 06:33:27;;;;;;;4.25;1.52;;;16.10;99.90;;;16.32;100.00;100156.59;5268681;28;20047;-56
2022/10/24 06:35:59;;;;;;;3.10;1.55;;;16.10;99.90;;;16.33;100.00;100161.84;5268660;28;20411;-57
2022/10/24 06:38:33;;;;;;;3.25;1.20;;;16.10;99.90;;;16.36;100.00;100161.81;5268742;28;20047;-57
2022/10/24 06:41:07;;;;;;;3.42;1.40;;;16.10;99.90;;;16.37;100.00;100163.59;5268612;28;20048;-57
2022/10/24 06:43:41;;;;;;;5.72;1.27;;;16.20;99.90;;;16.39;100.00;100167.09;5268623;28;20040;-57
2022/10/24 06:46:16;;;;;;;4.10;1.50;;;16.20;99.90;;;16.44;100.00;100173.25;5268564;28;20043;-56
2022/10/24 06:48:48;;;;;;;7.68;1.85;;;16.20;99.90;;;16.46;100.00;100168.00;5268411;28;20051;-57
2022/10/24 06:51:22;;;;;;;6.90;1.70;;;16.30;99.90;;;16.47;100.00;100170.63;5268198;28;20044;-56
2022/10/24 06:53:55;;;;;;;4.30;1.63;;;16.30;99.90;;;16.49;100.00;100170.59;5268327;28;20040;-56
2022/10/24 06:56:27;;;;;;;9.05;1.83;;;16.30;99.90;;;16.51;100.00;100177.66;5268238;28;20039;-56
2022/10/24 06:58:59;;;;;;;5.30;1.60;;;16.30;99.90;;;16.54;100.00;100188.16;5268222;28;20496;-57
2022/10/24 07:01:34;;;;;;;6.15;1.88;;;16.30;99.90;;;16.57;100.00;100181.16;5267755;28;20044;-57
2022/10/24 07:04:06;;;;;;;8.55;2.00;;;16.30;99.90;;;16.62;100.00;100189.91;5268366;28;20055;-57
2022/10/24 07:06:38;;;;;;;5.47;1.92;;;16.40;99.90;;;16.63;100.00;100194.31;5268115;28;20382;-56
2022/10/24 07:09:12;;;;;;;5.18;2.10;;;16.40;99.90;;;16.64;100.00;100190.81;5267473;28;20393;-56
2022/10/24 07:11:45;;;;;;;4.20;1.42;;;16.40;99.90;;;16.64;100.00;100193.44;5267461;28;20055;-57
2022/10/24 07:14:17;;;;;;;7.50;2.17;;;16.40;99.90;;;16.66;100.00;100192.56;5267930;28;20420;-56
2022/10/24 07:16:49;;;;;;;9.35;2.05;;;16.50;99.90;;;16.71;100.00;100184.72;5267877;28;20047;-56
2022/10/24 07:19:21;;;;;;;4.38;1.58;;;16.50;99.90;;;16.74;100.00;100189.97;5263397;28;20052;-57
2022/10/24 07:21:53;;;;;;;8.23;1.95;;;16.50;99.90;;;16.76;100.00;100194.38;5267399;28;20492;-56
2022/10/24 07:24:26;;;;;;;7.93;2.47;;;16.50;99.90;;;16.76;100.00;100193.50;5267963;28;20039;-57
2022/10/24 07:26:58;;;;;;;6.68;2.05;;;16.50;99.90;;;16.78;100.00;100202.25;5266499;28;20051;-56
2022/10/24 07:29:30;;;;;;;7.10;1.90;;;16.50;99.90;;;16.77;100.00;100206.63;5266380;28;20048;-56
2022/10/24 07:32:02;;;;;;;8.25;2.13;;;16.50;99.90;;;16.78;100.00;100210.16;5267349;28;20142;-56
2022/10/24 07:34:35;;;;;;;10.43;2.08;;;16.50;99.90;;;16.79;100.00;100214.53;5267458;28;20047;-56
2022/10/24 07:37:07;;;;;;;11.88;2.80;;;16.60;99.90;;;16.81;100.00;100220.66;5267616;28;20093;-56
2022/10/24 07:39:40;;;;;;;9.75;2.13;;;16.60;99.90;;;16.81;100.00;100218.91;5267432;28;20048;-56
2022/10/24 07:42:12;;;;;;;8.77;3.10;;;16.60;99.90;;;16.85;100.00;100232.94;5267177;28;20408;-56
2022/10/24 07:44:45;;;;;;;6.40;1.90;;;16.60;99.90;;;16.89;100.00;100232.09;5267374;28;20047;-56
2022/10/24 07:47:17;;;;;;;3.63;1.30;;;16.60;99.90;;;16.97;100.00;100227.69;5267378;28;20161;-56
2022/10/24 07:49:49;;;;;;;3.90;1.35;;;16.70;99.90;;;17.15;100.00;100224.19;5266995;28;20063;-56
2022/10/24 07:52:21;;;;;;;3.72;1.30;;;16.80;99.90;;;17.33;100.00;100233.78;5267055;28;20047;-57
2022/10/24 07:54:55;;;;;;;2.88;1.10;;;17.00;99.90;;;17.51;100.00;100241.66;5267089;28;20063;-56
2022/10/24 07:57:27;;;;;;;2.67;0.98;;;17.20;99.90;;;17.67;100.00;100239.88;5267001;28;20127;-57
2022/10/24 07:59:59;;;;;;;4.63;1.05;;;17.30;99.90;;;17.77;100.00;100244.25;5266593;28;20054;-57
2022/10/24 08:02:31;;;;;;;3.05;1.45;;;17.40;99.90;;;17.82;100.00;100244.25;5266928;28;20380;-57
2022/10/24 08:05:04;;;;;;;2.70;0.90;;;17.50;99.90;;;17.86;100.00;100252.13;5267082;28;20044;-57
2022/10/24 08:07:36;;;;;;;4.55;1.00;;;17.50;99.90;;;17.87;100.00;100264.47;5263406;28;20052;-57
2022/10/24 08:10:12;;;;;;;3.05;1.00;;;17.50;99.90;;;17.95;100.00;100261.78;5263588;28;20044;-58
2022/10/24 08:12:44;;;;;;;2.40;0.80;;;17.60;99.90;;;17.99;100.00;100258.22;5267220;28;20040;-58
2022/10/24 08:15:16;;;;;;;3.15;0.90;;;17.60;99.90;;;18.07;100.00;100261.75;5257890;28;20051;-58
2022/10/24 08:17:48;;;;;;;3.15;0.80;;;17.70;99.90;;;18.07;100.00;100267.03;5266950;28;20050;-58
2022/10/24 08:20:22;;;;;;;5.60;1.25;;;17.70;99.90;;;18.08;100.00;100257.34;5266953;28;20454;-55
2022/10/24 08:22:55;;;;;;;1.70;0.80;;;17.70;99.90;;;18.06;100.00;100260.00;5261662;28;20044;-56
2022/10/24 08:25:28;;;;;;;2.70;0.73;;;17.70;99.90;;;18.05;100.00;100266.13;5267026;28;20519;-56
2022/10/24 08:28:00;;;;;;;4.88;1.10;;;17.80;99.90;;;18.06;100.00;100265.28;5262386;28;20059;-57
2022/10/24 08:30:32;;;;;;;1.42;0.82;;;17.70;99.90;;;18.21;100.00;100266.97;5266370;28;20400;-57
2022/10/24 08:33:04;;;;;;;2.08;1.05;;;17.90;99.90;;;18.50;100.00;100269.44;5266945;28;20051;-57
2022/10/24 08:35:37;;;;;;;2.15;0.93;;;18.10;99.90;;;18.77;100.00;100268.41;5266831;28;20046;-58
2022/10/24 08:38:09;;;;;;;3.72;0.80;;;18.30;99.90;;;19.00;100.00;100270.88;5266997;28;20529;-57
2022/10/24 08:40:42;;;;;;;3.70;1.05;;;18.50;99.90;;;19.12;100.00;100280.47;5266103;28;20048;-58
2022/10/24 08:43:15;;;;;;;3.75;1.27;;;18.70;99.90;;;19.16;100.00;100268.97;5266628;28;20496;-59
2022/10/24 08:46:01;;;;;;;3.30;0.63;;;18.70;99.90;;;19.11;100.00;100266.41;5266596;28;20129;-58
2022/10/24 08:48:44;;;;;;;3.15;0.80;;;18.80;99.90;;;19.10;100.00;100264.63;5264494;28;20036;-58
2022/10/24 08:51:27;;;;;;;2.45;0.90;;;18.80;99.90;;;19.16;100.00;100274.25;5263040;28;20408;-57
2022/10/24 08:54:01;;;;;;;4.90;1.05;;;18.80;99.90;;;19.36;100.00;100263.50;5263574;28;20048;-57
2022/10/24 08:56:35;;;;;;;2.17;0.60;;;18.90;99.90;;;19.64;100.00;100267.69;5263468;28;20044;-57
2022/10/24 08:59:11;;;;;;;4.22;1.15;;;19.10;99.90;;;19.94;100.00;100274.38;5262740;28;20123;-58
2022/10/24 09:01:49;;;;;;;2.92;0.80;;;19.40;99.90;;;20.20;97.49;100274.06;5264117;28;20039;-58
2022/10/24 09:04:25;;;;;;;0.90;0.70;;;19.60;99.90;;;20.35;97.13;100274.78;5266497;28;20408;-58
2022/10/24 09:06:57;;;;;;;3.25;0.63;;;19.80;99.90;;;20.50;93.41;100279.91;5264244;28;20044;-57
2022/10/24 09:09:36;;;;;;;1.00;0.50;;;19.90;99.90;;;20.50;93.23;100272.81;5257642;28;20032;-56
2022/10/24 09:12:13;;;;;;;2.05;0.68;;;19.90;99.70;;;20.54;93.69;100271.03;5263927;28;20056;-57
2022/10/24 09:14:55;;;;;;;1.88;0.70;;;20.00;99.80;;;20.56;93.50;100271.88;5263575;28;20036;-57
2022/10/24 09:17:33;;;;;;;2.67;0.80;;;20.00;99.70;;;20.54;93.72;100271.03;5266135;28;20044;-57
2022/10/24 09:20:22;;;;;;;2.85;0.60;;;20.00;99.60;;;20.57;93.40;100263.03;5266220;28;20052;-57
2022/10/24 09:22:56;;;;;;;1.90;0.65;;;20.00;99.60;;;20.69;93.04;100261.97;5266182;28;20048;-57
2022/10/24 09:25:32;;;;;;;2.35;0.70;;;20.10;99.50;;;20.75;92.14;100261.88;5266304;28;20098;-56
2022/10/24 09:28:06;;;;;;;1.95;0.85;;;20.20;99.20;;;20.88;91.98;100265.22;5266319;28;20039;-57
2022/10/24 09:30:39;;;;;;;2.70;0.75;;;20.30;99.10;;;21.11;90.37;100266.56;5283627;22;20389;-80
2022/10/24 09:33:27;;;;;;;3.63;0.77;;;20.50;98.60;;;21.29;89.59;100269.84;5244945;28;20585;-80
2022/10/24 09:36:03;;;;;;;2.15;0.57;;;20.60;98.30;;;21.48;90.14;100265.09;5231947;28;20523;-81
2022/10/24 09:38:38;;;;;;;3.13;0.60;;;20.80;98.50;;;21.65;88.61;100274.50;5231881;28;20064;-80
2022/10/24 09:41:19;;;;;;;1.95;0.90;;;20.90;97.90;;;21.75;85.65;100284.94;5231437;28;20044;-81
2022/10/24 09:43:56;;;;;;;2.25;0.70;;;21.10;96.80;;;21.79;85.14;100287.50;5215067;28;20131;-80
2022/10/24 09:46:36;;;;;;;2.95;0.57;;;21.10;96.50;;;21.78;85.61;100287.50;5249746;28;20040;-81
2022/10/24 09:49:21;;;;;;;2.55;0.70;;;21.20;96.40;;;21.75;85.45;100291.09;5250090;28;20417;-81
2022/10/24 09:52:05;;;;;;;3.53;0.80;;;21.20;96.20;;;21.74;84.67;100289.38;5215225;28;20102;-80
2022/10/24 09:54:37;;;;;;;2.53;0.75;;;21.10;95.90;;;21.70;83.79;100298.28;5215118;28;20570;-81
2022/10/24 09:57:15;;;;;;;2.92;0.63;;;21.10;95.40;;;21.69;84.98;100299.19;5215097;28;20048;-81
2022/10/24 09:59:59;;;;;;;2.92;0.63;;;21.10;95.80;;;21.73;85.52;100295.56;5249297;28;20044;-80
2022/10/24 10:02:33;;;;;;;2.55;0.70;;;21.10;96.00;;;21.85;84.84;100305.97;5249436;28;20052;-81
2022/10/24 10:05:21;;;;;;;3.03;1.00;;;21.20;95.80;;;21.80;85.14;100301.66;5231142;28;20397;-80
2022/10/24 10:07:53;;;;;;;4.20;1.10;;;21.20;95.70;;;21.69;84.47;100296.53;5231552;28;20110;-81
2022/10/24 10:10:33;;;;;;;1.38;0.65;;;21.10;95.40;;;21.52;85.47;100304.81;5214306;28;20048;-81
2022/10/24 10:13:22;;;;;;;4.55;0.98;;;21.00;95.70;;;21.40;84.10;100310.31;5214705;28;20480;-81
2022/10/24 10:15:59;;;;;;;3.90;0.90;;;20.90;95.00;;;21.14;86.31;100305.41;5250251;28;20400;-81
2022/10/24 10:18:44;;;;;;;4.72;0.70;;;20.70;95.70;;;21.01;87.20;100309.16;5249274;28;20521;-80
2022/10/24 10:21:22;;;;;;;3.72;1.15;;;20.60;96.10;;;20.88;87.44;100310.25;5248683;28;20047;-80
2022/10/24 10:24:00;;;;;;;1.48;0.50;;;20.40;96.30;;;20.79;87.38;100305.94;5230987;28;20501;-81
2022/10/24 10:26:44;;;;;;;2.05;0.70;;;20.30;96.30;;;20.67;87.79;100312.31;5231114;28;20135;-81
2022/10/24 10:29:23;;;;;;;0.80;0.40;;;20.20;96.40;;;20.57;88.63;100306.25;5231135;28;20064;-81
2022/10/24 10:32:05;;;;;;;1.42;0.52;;;20.10;96.70;;;20.58;86.81;100323.88;5214047;28;20101;-81
2022/10/24 10:34:41;;;;;;;3.60;1.02;;;20.10;96.20;;;20.63;86.67;100318.53;5213985;28;20048;-80
2022/10/24 10:37:26;;;;;;;2.08;0.90;;;20.10;96.20;;;20.65;86.78;100319.38;5249176;28;20381;-81
2022/10/24 10:40:34;;;;;;;2.25;0.60;;;20.10;96.10;;;20.67;86.97;100328.22;5230528;28;20272;-81